Time;durP1;ratioP1;P1;durP2;ratioP2;P2;SDS_P1;SDS_P2;PMS_P1;PMS_P2;Temp;Humidity;BMP_temperature;BMP_pressure;BME280_temperature;BME280_humidity;BME280_pressure;Samples;Min_cycle;Max_cycle;Signal;HPM_P1;HPM_P2
2024/02/29 00:02:13;;;;;;;38.88;18.17;;;;;;;-1.56;100.00;97546.78;5014305;28;20049;-67
2024/02/29 00:04:39;;;;;;;40.20;18.48;;;;;;;-1.22;100.00;97552.84;5021241;28;20038;-67
2024/02/29 00:07:06;;;;;;;43.83;21.42;;;;;;;-1.31;100.00;97544.91;5018005;28;20045;-67
2024/02/29 00:09:32;;;;;;;47.78;19.20;;;;;;;-1.21;100.00;97542.03;5019442;28;20116;-66
2024/02/29 00:11:59;;;;;;;43.05;19.02;;;;;;;-1.12;100.00;97540.19;5007746;28;20053;-66
2024/02/29 00:14:26;;;;;;;41.30;18.70;;;;;;;-0.88;100.00;97535.75;5019683;28;20041;-66
2024/02/29 00:16:53;;;;;;;41.80;19.40;;;;;;;-0.89;100.00;97543.91;5025032;28;20046;-66
2024/02/29 00:19:20;;;;;;;43.45;20.15;;;;;;;-0.71;100.00;97547.13;5017771;28;20049;-67
2024/02/29 00:21:46;;;;;;;44.13;20.30;;;;;;;-1.00;100.00;97532.63;5022700;28;20046;-66
2024/02/29 00:24:13;;;;;;;42.50;19.60;;;;;;;-1.10;100.00;97530.19;5020375;28;20708;-67
2024/02/29 00:26:40;;;;;;;39.75;18.90;;;;;;;-0.94;100.00;97526.66;5023093;28;20069;-66
2024/02/29 00:29:07;;;;;;;41.25;19.50;;;;;;;-0.85;100.00;97534.56;5023089;28;20049;-67
2024/02/29 00:31:34;;;;;;;49.63;22.67;;;;;;;-0.61;100.00;97538.06;5021315;28;20110;-66
2024/02/29 00:34:01;;;;;;;41.95;20.38;;;;;;;-0.53;100.00;97527.38;5023315;28;20038;-66
2024/02/29 00:36:27;;;;;;;49.25;21.13;;;;;;;-0.43;100.00;97521.84;5016418;28;20042;-67
2024/02/29 00:38:55;;;;;;;45.05;21.27;;;;;;;-0.44;100.00;97512.22;5020223;28;20037;-66
2024/02/29 00:41:37;;;;;;;47.15;21.27;;;;;;;-0.38;100.00;97514.16;5019733;28;20420;-66
2024/02/29 00:44:03;;;;;;;49.40;21.17;;;;;;;-0.34;100.00;97498.66;5022228;28;20519;-66
2024/02/29 00:46:30;;;;;;;47.97;22.70;;;;;;;-0.45;100.00;97502.53;5023706;28;20122;-66
2024/02/29 00:48:56;;;;;;;45.25;20.73;;;;;;;-0.70;100.00;97500.09;5022009;28;20048;-66
2024/02/29 00:51:23;;;;;;;42.55;18.88;;;;;;;-0.70;100.00;97494.78;5017090;28;20067;-66
2024/02/29 00:53:49;;;;;;;40.90;19.55;;;;;;;-1.12;100.00;97495.00;5021544;28;20037;-66
2024/02/29 00:56:16;;;;;;;37.88;18.50;;;;;;;-1.15;100.00;97490.03;5020330;28;20252;-66
2024/02/29 00:58:43;;;;;;;38.40;18.50;;;;;;;-1.02;100.00;97500.09;5016052;28;20064;-65
2024/02/29 01:01:09;;;;;;;40.65;19.05;;;;;;;-0.95;100.00;97498.38;5016268;28;20121;-65
2024/02/29 01:03:36;;;;;;;42.38;21.23;;;;;;;-1.00;100.00;97497.28;5019667;28;20326;-65
2024/02/29 01:06:04;;;;;;;39.45;19.52;;;;;;;-1.02;100.00;97488.63;5012048;28;20045;-65
2024/02/29 01:08:31;;;;;;;47.58;20.60;;;;;;;-0.99;100.00;97491.75;5020646;28;20549;-65
2024/02/29 01:10:57;;;;;;;39.97;18.23;;;;;;;-1.06;100.00;97490.81;5021551;28;20092;-65
2024/02/29 01:13:24;;;;;;;47.33;20.80;;;;;;;-0.86;100.00;97496.53;5029952;28;20163;-65
2024/02/29 01:15:50;;;;;;;43.75;19.17;;;;;;;-0.84;100.00;97497.19;5029222;28;20055;-65
2024/02/29 01:18:17;;;;;;;43.38;18.90;;;;;;;-0.98;100.00;97487.28;5024027;28;20071;-65
2024/02/29 01:20:44;;;;;;;41.85;19.90;;;;;;;-0.97;100.00;97484.47;5024318;28;20056;-65
2024/02/29 01:23:10;;;;;;;46.22;20.40;;;;;;;-1.18;100.00;97477.09;5025366;28;20045;-65
2024/02/29 01:25:37;;;;;;;43.75;21.00;;;;;;;-1.11;100.00;97480.72;5025141;28;20056;-65
2024/02/29 01:28:03;;;;;;;44.80;20.15;;;;;;;-1.23;100.00;97474.97;5024687;28;20052;-66
2024/02/29 01:30:30;;;;;;;43.75;20.13;;;;;;;-1.26;100.00;97475.31;5025290;28;20053;-65
2024/02/29 01:32:57;;;;;;;41.60;19.38;;;;;;;-1.33;100.00;97472.50;5022701;28;20052;-65
2024/02/29 01:35:23;;;;;;;42.63;18.27;;;;;;;-1.23;100.00;97466.16;5020411;28;20050;-65
2024/02/29 01:37:50;;;;;;;47.35;20.80;;;;;;;-1.27;100.00;97465.69;5027870;28;20497;-65
2024/02/29 01:40:18;;;;;;;43.90;21.17;;;;;;;-1.40;100.00;97457.44;5025750;28;20052;-65
2024/02/29 01:42:45;;;;;;;39.97;19.25;;;;;;;-1.38;100.00;97460.75;5018913;28;20103;-64
2024/02/29 01:45:13;;;;;;;40.95;19.50;;;;;;;-1.48;100.00;97456.47;5017988;28;20050;-65
2024/02/29 01:47:39;;;;;;;42.90;19.08;;;;;;;-1.51;100.00;97448.84;5022489;28;20049;-65
2024/02/29 01:50:08;;;;;;;44.67;19.85;;;;;;;-1.46;100.00;97451.00;5022449;28;20044;-65
2024/02/29 01:52:38;;;;;;;43.58;20.17;;;;;;;-1.35;100.00;97449.78;5020863;28;21462;-65
2024/02/29 01:55:05;;;;;;;41.80;21.48;;;;;;;-1.34;100.00;97448.78;5025388;28;20651;-65
2024/02/29 01:57:32;;;;;;;46.83;19.15;;;;;;;-1.39;100.00;97448.47;5024638;28;20129;-65
2024/02/29 01:59:59;;;;;;;37.58;18.98;;;;;;;-1.70;100.00;97440.31;5026470;28;20073;-65
2024/02/29 02:02:25;;;;;;;43.78;20.73;;;;;;;-1.49;100.00;97444.19;5024845;28;20052;-65
2024/02/29 02:04:52;;;;;;;37.83;19.48;;;;;;;-1.51;100.00;97443.53;5016875;28;20055;-66
2024/02/29 02:07:19;;;;;;;50.75;21.38;;;;;;;-1.44;100.00;97441.00;5006799;28;20052;-65
2024/02/29 02:09:45;;;;;;;43.40;19.35;;;;;;;-1.45;100.00;97432.22;5023195;28;20046;-65
2024/02/29 02:12:13;;;;;;;45.28;21.58;;;;;;;-1.36;100.00;97426.88;5024749;28;20051;-65
2024/02/29 02:14:39;;;;;;;40.67;19.50;;;;;;;-1.54;100.00;97430.63;5031069;28;20132;-65
2024/02/29 02:17:07;;;;;;;46.47;20.33;;;;;;;-1.70;100.00;97421.72;5025780;28;20056;-65
2024/02/29 02:19:34;;;;;;;38.97;18.83;;;;;;;-1.75;100.00;97423.22;5024665;28;20053;-65
2024/02/29 02:22:04;;;;;;;39.00;18.08;;;;;;;-1.88;100.00;97421.13;5021922;28;20124;-65
2024/02/29 02:24:34;;;;;;;40.47;19.05;;;;;;;-1.90;100.00;97416.00;5028418;28;20531;-65
2024/02/29 02:27:01;;;;;;;44.45;19.40;;;;;;;-1.79;100.00;97412.13;5031084;28;20050;-64
2024/02/29 02:29:27;;;;;;;39.85;17.77;;;;;;;-1.88;100.00;97415.81;5024097;28;20055;-68
2024/02/29 02:31:55;;;;;;;36.92;17.05;;;;;;;-1.75;100.00;97417.91;5023408;28;20049;-65
2024/02/29 02:34:22;;;;;;;39.30;20.92;;;;;;;-1.49;100.00;97417.66;5018694;28;20046;-66
2024/02/29 02:36:48;;;;;;;44.65;20.20;;;;;;;-1.30;100.00;97415.53;5017023;28;20459;-65
2024/02/29 02:39:15;;;;;;;42.47;18.75;;;;;;;-1.42;100.00;97412.47;5022891;28;20037;-65
2024/02/29 02:41:44;;;;;;;42.05;19.08;;;;;;;-1.41;100.00;97405.34;5021957;28;20061;-64
2024/02/29 02:44:12;;;;;;;49.97;20.02;;;;;;;-1.49;100.00;97395.56;5018849;28;20041;-64
2024/02/29 02:46:38;;;;;;;41.17;19.35;;;;;;;-1.32;100.00;97398.97;5024364;28;20255;-65
2024/02/29 02:49:05;;;;;;;43.55;19.83;;;;;;;-1.25;100.00;97399.09;5022264;28;20041;-65
2024/02/29 02:51:31;;;;;;;51.10;22.42;;;;;;;-1.01;100.00;97400.75;5015675;28;20103;-65
2024/02/29 02:53:58;;;;;;;42.85;21.42;;;;;;;-1.07;100.00;97396.97;5021247;28;20124;-65
2024/02/29 02:56:25;;;;;;;52.15;19.42;;;;;;;-1.05;100.00;97396.78;5030276;28;20045;-64
2024/02/29 02:58:51;;;;;;;43.13;19.42;;;;;;;-0.92;100.00;97390.91;5020817;28;20096;-64
2024/02/29 03:01:18;;;;;;;47.00;20.60;;;;;;;-0.93;100.00;97389.22;5023492;28;20041;-64
2024/02/29 03:03:45;;;;;;;50.00;21.92;;;;;;;-0.81;100.00;97390.47;5020793;28;20120;-65
2024/02/29 03:06:14;;;;;;;56.00;24.58;;;;;;;-0.60;100.00;97388.97;5014988;28;20288;-64
2024/02/29 03:08:40;;;;;;;59.53;24.38;;;;;;;-0.52;100.00;97385.41;5020918;28;20049;-64
2024/02/29 03:11:07;;;;;;;50.47;22.00;;;;;;;-0.45;100.00;97382.84;5025209;28;20045;-65
2024/02/29 03:13:34;;;;;;;54.70;22.50;;;;;;;-0.43;100.00;97387.00;5021806;28;20041;-65
2024/02/29 03:16:00;;;;;;;46.08;20.85;;;;;;;-0.53;100.00;97375.78;5027329;28;20079;-65
2024/02/29 03:18:27;;;;;;;47.25;20.60;;;;;;;-0.62;100.00;97368.88;5017582;28;20571;-65
2024/02/29 03:20:53;;;;;;;56.40;22.00;;;;;;;-0.60;100.00;97378.31;5014068;28;20045;-65
2024/02/29 03:23:20;;;;;;;48.15;22.92;;;;;;;-0.67;100.00;97364.94;5021861;28;20155;-65
2024/02/29 03:25:47;;;;;;;49.70;22.27;;;;;;;-0.69;100.00;97374.09;5021954;28;20355;-65
2024/02/29 03:28:13;;;;;;;51.55;22.67;;;;;;;-0.73;100.00;97378.13;5020043;28;20041;-65
2024/02/29 03:30:40;;;;;;;55.17;22.92;;;;;;;-0.57;100.00;97369.16;5020720;28;20041;-65
2024/02/29 03:33:07;;;;;;;55.00;23.17;;;;;;;-0.49;100.00;97370.91;5013823;28;20045;-65
2024/02/29 03:35:34;;;;;;;50.13;22.52;;;;;;;-0.44;100.00;97366.69;5014270;28;20042;-65
2024/02/29 03:38:01;;;;;;;54.65;23.08;;;;;;;-0.39;100.00;97371.50;5022693;28;20041;-65
2024/02/29 03:40:27;;;;;;;54.60;22.35;;;;;;;-0.40;100.00;97357.34;5018222;28;20505;-65
2024/02/29 03:42:54;;;;;;;53.70;23.52;;;;;;;-0.47;100.00;97364.44;5021290;28;20464;-65
2024/02/29 03:45:21;;;;;;;56.25;24.02;;;;;;;-0.49;100.00;97362.94;5025786;28;20129;-65
2024/02/29 03:47:48;;;;;;;48.00;21.88;;;;;;;-0.56;100.00;97360.16;5015644;28;20124;-65
2024/02/29 03:50:15;;;;;;;55.20;25.75;;;;;;;-0.54;100.00;97368.81;5023479;28;20034;-65
2024/02/29 03:52:41;;;;;;;60.95;24.67;;;;;;;-0.49;100.00;97346.97;5012613;28;20049;-65
2024/02/29 03:55:09;;;;;;;50.33;21.95;;;;;;;-0.57;100.00;97355.84;5018184;28;20053;-65
2024/02/29 03:57:36;;;;;;;54.22;22.77;;;;;;;-0.72;100.00;97351.34;5013566;28;20121;-65
2024/02/29 04:00:03;;;;;;;49.00;21.08;;;;;;;-0.79;100.00;97347.75;5018431;28;20482;-65
2024/02/29 04:02:31;;;;;;;47.25;21.10;;;;;;;-0.91;100.00;97350.00;5022577;28;20567;-65
2024/02/29 04:04:58;;;;;;;45.83;21.08;;;;;;;-1.01;100.00;97344.94;5023962;28;20055;-65
2024/02/29 04:07:24;;;;;;;51.13;22.15;;;;;;;-1.01;100.00;97360.88;5023505;28;20412;-65
2024/02/29 04:09:54;;;;;;;45.60;20.63;;;;;;;-0.98;100.00;97363.19;5021531;28;20699;-64
2024/02/29 04:12:21;;;;;;;52.92;21.42;;;;;;;-0.97;100.00;97364.84;5016958;28;20125;-64
2024/02/29 04:14:48;;;;;;;53.60;23.48;;;;;;;-1.01;100.00;97363.53;5015207;28;20128;-64
2024/02/29 04:17:14;;;;;;;54.25;21.55;;;;;;;-0.97;100.00;97362.19;5015574;28;20045;-64
2024/02/29 04:19:43;;;;;;;41.92;20.30;;;;;;;-0.96;100.00;97358.50;5020409;28;20058;-65
2024/02/29 04:22:10;;;;;;;51.08;20.25;;;;;;;-1.19;100.00;97343.41;5023558;28;20037;-65
2024/02/29 04:24:36;;;;;;;41.67;19.60;;;;;;;-1.13;100.00;97349.00;5021313;28;20091;-64
2024/02/29 04:27:03;;;;;;;51.67;22.40;;;;;;;-1.15;100.00;97357.16;5021083;28;20049;-64
2024/02/29 04:29:30;;;;;;;57.28;23.17;;;;;;;-1.19;100.00;97343.41;5022719;28;20047;-65
2024/02/29 04:31:58;;;;;;;54.90;22.27;;;;;;;-1.11;100.00;97347.03;5026307;28;20468;-64
2024/02/29 04:34:25;;;;;;;44.58;18.42;;;;;;;-1.38;100.00;97343.88;5028253;28;20080;-64
2024/02/29 04:36:52;;;;;;;40.08;18.98;;;;;;;-1.45;100.00;97339.28;5017553;28;20497;-64
2024/02/29 04:39:18;;;;;;;45.53;20.42;;;;;;;-1.47;100.00;97349.22;5015369;28;20559;-64
2024/02/29 04:41:45;;;;;;;50.05;21.45;;;;;;;-1.59;100.00;97342.66;5021008;28;20124;-65
2024/02/29 04:44:11;;;;;;;49.47;20.02;;;;;;;-1.72;100.00;97333.47;5018209;28;20538;-64
2024/02/29 04:46:38;;;;;;;46.03;19.27;;;;;;;-1.66;100.00;97341.72;5026628;28;20053;-64
2024/02/29 04:49:05;;;;;;;49.72;19.30;;;;;;;-1.66;100.00;97344.38;5025105;28;20040;-64
2024/02/29 04:51:31;;;;;;;49.15;20.70;;;;;;;-1.79;100.00;97329.84;5025867;28;20045;-64
2024/02/29 04:53:58;;;;;;;48.55;18.90;;;;;;;-1.88;100.00;97328.22;5019324;28;20049;-64
2024/02/29 04:56:25;;;;;;;45.80;19.35;;;;;;;-1.77;100.00;97333.13;5031564;28;20068;-65
2024/02/29 04:58:52;;;;;;;43.72;20.40;;;;;;;-1.65;100.00;97336.25;5027838;28;20050;-64
2024/02/29 05:01:18;;;;;;;50.13;21.88;;;;;;;-1.65;100.00;97327.44;5024161;28;20610;-64
2024/02/29 05:03:45;;;;;;;53.13;20.98;;;;;;;-1.52;100.00;97319.72;5024357;28;20158;-64
2024/02/29 05:06:16;;;;;;;53.17;21.88;;;;;;;-1.33;100.00;97321.09;5025187;28;20048;-64
2024/02/29 05:08:43;;;;;;;51.57;21.07;;;;;;;-1.60;100.00;97315.31;5027638;28;20459;-67
2024/02/29 05:11:10;;;;;;;46.17;20.38;;;;;;;-1.71;100.00;97313.03;5025427;28;20276;-67
2024/02/29 05:13:37;;;;;;;43.83;20.42;;;;;;;-1.62;100.00;97311.16;5028193;28;20455;-66
2024/02/29 05:16:04;;;;;;;43.17;18.75;;;;;;;-1.55;100.00;97304.13;5026232;28;20049;-66
2024/02/29 05:18:31;;;;;;;47.78;20.48;;;;;;;-1.73;100.00;97313.19;5021572;28;20244;-66
2024/02/29 05:20:58;;;;;;;44.05;18.60;;;;;;;-1.64;100.00;97313.16;5024925;28;20045;-67
2024/02/29 05:23:25;;;;;;;35.83;17.40;;;;;;;-1.75;100.00;97301.94;5020727;28;20045;-66
2024/02/29 05:25:51;;;;;;;44.72;19.67;;;;;;;-2.00;100.00;97299.41;5022788;28;20489;-66
2024/02/29 05:28:18;;;;;;;42.47;18.40;;;;;;;-2.13;100.00;97297.31;5018444;28;20056;-67
2024/02/29 05:30:44;;;;;;;47.30;17.73;;;;;;;-1.84;100.00;97300.34;5025688;28;20048;-66
2024/02/29 05:33:11;;;;;;;44.00;19.73;;;;;;;-1.72;100.00;97306.06;5024397;28;20120;-66
2024/02/29 05:35:38;;;;;;;42.55;20.70;;;;;;;-1.75;100.00;97296.63;5025641;28;20417;-66
2024/02/29 05:38:06;;;;;;;47.20;19.52;;;;;;;-1.77;100.00;97295.97;5026948;28;20045;-66
2024/02/29 05:40:32;;;;;;;42.42;18.90;;;;;;;-1.81;100.00;97294.66;5024588;28;20065;-66
2024/02/29 05:42:59;;;;;;;41.15;18.95;;;;;;;-1.92;100.00;97287.13;5015220;28;20056;-66
2024/02/29 05:45:26;;;;;;;42.40;19.02;;;;;;;-1.84;100.00;97287.06;5025821;28;20041;-66
2024/02/29 05:47:52;;;;;;;37.65;18.25;;;;;;;-1.66;100.00;97286.78;5020984;28;20041;-66
2024/02/29 05:50:19;;;;;;;48.47;19.52;;;;;;;-1.62;100.00;97285.44;5023142;28;20937;-66
2024/02/29 05:52:45;;;;;;;41.75;18.52;;;;;;;-1.68;100.00;97277.34;5017609;28;20049;-66
2024/02/29 05:55:12;;;;;;;45.30;18.73;;;;;;;-1.62;100.00;97274.81;5011837;28;20124;-67
2024/02/29 05:57:39;;;;;;;44.92;19.17;;;;;;;-1.81;100.00;97268.13;5024571;28;20111;-66
2024/02/29 06:00:06;;;;;;;47.90;20.75;;;;;;;-1.72;100.00;97271.56;5026285;28;20040;-67
2024/02/29 06:02:38;;;;;;;37.97;17.25;;;;;;;-1.73;100.00;97276.03;5022042;28;20061;-66
2024/02/29 06:05:07;;;;;;;47.88;19.20;;;;;;;-1.55;100.00;97274.13;5012980;28;20061;-67
2024/02/29 06:07:34;;;;;;;37.97;18.52;;;;;;;-1.52;100.00;97273.78;5012497;28;20057;-66
2024/02/29 06:10:01;;;;;;;50.75;20.45;;;;;;;-1.46;100.00;97270.38;5023737;28;20087;-67
2024/02/29 06:12:30;;;;;;;39.05;18.70;;;;;;;-1.46;100.00;97268.56;5023506;28;20127;-66
2024/02/29 06:14:57;;;;;;;38.92;17.88;;;;;;;-1.51;100.00;97259.47;5028027;28;20103;-67
2024/02/29 06:17:23;;;;;;;42.90;18.33;;;;;;;-1.50;100.00;97261.13;5019317;28;20143;-66
2024/02/29 06:19:50;;;;;;;43.10;18.50;;;;;;;-1.38;100.00;97262.38;5015112;28;20037;-67
2024/02/29 06:22:18;;;;;;;39.40;17.33;;;;;;;-1.35;100.00;97262.00;5019627;28;20160;-67
2024/02/29 06:24:45;;;;;;;39.45;18.23;;;;;;;-1.27;100.00;97253.16;5017710;28;20041;-67
2024/02/29 06:27:11;;;;;;;46.35;18.38;;;;;;;-1.24;100.00;97254.59;5032661;28;20124;-66
2024/02/29 06:29:38;;;;;;;47.92;20.30;;;;;;;-1.22;100.00;97248.13;5020083;28;20045;-67
2024/02/29 06:32:05;;;;;;;43.53;19.42;;;;;;;-1.10;100.00;97247.69;5022797;28;20044;-67
2024/02/29 06:34:32;;;;;;;43.70;18.65;;;;;;;-0.99;100.00;97254.41;5025403;28;20042;-67
2024/02/29 06:36:58;;;;;;;48.22;18.00;;;;;;;-0.99;100.00;97243.75;5020988;28;20049;-66
2024/02/29 06:39:25;;;;;;;43.40;19.10;;;;;;;-1.11;100.00;97238.06;5022895;28;20041;-66
2024/02/29 06:41:52;;;;;;;49.53;21.67;;;;;;;-0.98;100.00;97238.28;5028335;28;20045;-67
2024/02/29 06:44:18;;;;;;;45.20;19.63;;;;;;;-0.90;100.00;97236.53;5014339;28;20065;-66
2024/02/29 06:46:45;;;;;;;46.80;19.85;;;;;;;-0.89;100.00;97240.84;5017841;28;20099;-66
2024/02/29 06:49:11;;;;;;;48.60;19.60;;;;;;;-0.85;100.00;97234.97;5018530;28;20056;-66
2024/02/29 06:51:38;;;;;;;46.00;19.98;;;;;;;-0.77;100.00;97234.09;5023691;28;20037;-67
2024/02/29 06:54:05;;;;;;;44.60;20.00;;;;;;;-0.74;100.00;97232.88;5025998;28;20148;-66
2024/02/29 06:56:32;;;;;;;46.03;19.60;;;;;;;-0.58;100.00;97229.22;5020087;28;20045;-66
2024/02/29 06:58:58;;;;;;;45.47;19.70;;;;;;;-0.55;100.00;97231.50;5021345;28;20524;-67
2024/02/29 07:01:25;;;;;;;47.50;19.27;;;;;;;-0.43;100.00;97235.34;5018991;28;20041;-66
2024/02/29 07:03:51;;;;;;;40.22;18.73;;;;;;;-0.34;100.00;97229.94;5020778;28;20424;-66
2024/02/29 07:06:18;;;;;;;41.38;18.27;;;;;;;-0.43;100.00;97226.53;5023400;28;20041;-67
2024/02/29 07:08:46;;;;;;;45.03;19.30;;;;;;;-0.27;100.00;97222.84;5025258;28;20037;-67
2024/02/29 07:11:13;;;;;;;37.53;19.00;;;;;;;-0.32;100.00;97223.41;5022602;28;20685;-67
2024/02/29 07:13:40;;;;;;;40.67;18.25;;;;;;;-0.30;100.00;97218.72;5023473;28;20508;-67
2024/02/29 07:16:07;;;;;;;43.03;20.05;;;;;;;-0.21;100.00;97218.63;5019023;28;20053;-66
2024/02/29 07:18:33;;;;;;;41.13;20.30;;;;;;;-0.04;100.00;97228.03;5023564;28;20116;-67
2024/02/29 07:21:00;;;;;;;42.75;18.33;;;;;;;0.02;100.00;97238.94;5022951;28;20041;-67
2024/02/29 07:23:26;;;;;;;41.15;19.88;;;;;;;0.11;100.00;97230.66;5020202;28;20045;-66
2024/02/29 07:25:53;;;;;;;40.38;19.63;;;;;;;0.10;100.00;97234.34;5017446;28;20122;-67
2024/02/29 07:28:20;;;;;;;43.15;19.90;;;;;;;0.23;100.00;97230.97;5014019;28;20107;-67
2024/02/29 07:30:46;;;;;;;41.35;19.02;;;;;;;0.35;100.00;97228.66;5020561;28;20564;-67
2024/02/29 07:33:13;;;;;;;42.17;19.77;;;;;;;0.45;100.00;97225.69;5023809;28;20041;-66
2024/02/29 07:35:39;;;;;;;40.20;20.17;;;;;;;0.57;100.00;97231.31;5021844;28;20129;-67
2024/02/29 07:38:06;;;;;;;44.17;20.77;;;;;;;0.62;100.00;97228.88;5020321;28;20049;-68
2024/02/29 07:40:32;;;;;;;38.72;19.58;;;;;;;0.70;100.00;97232.44;5020777;28;20607;-67
2024/02/29 07:43:00;;;;;;;46.78;21.02;;;;;;;0.82;100.00;97230.91;5014351;28;20041;-67
2024/02/29 07:45:27;;;;;;;42.53;19.17;;;;;;;0.95;100.00;97224.03;5024411;28;20041;-67
2024/02/29 07:47:55;;;;;;;46.20;20.73;;;;;;;1.02;100.00;97222.22;5013481;28;20145;-67
2024/02/29 07:50:22;;;;;;;43.97;19.23;;;;;;;1.12;100.00;97228.06;5022566;28;20042;-67
2024/02/29 07:52:48;;;;;;;42.67;19.50;;;;;;;1.21;100.00;97225.25;5021376;28;20049;-67
2024/02/29 07:55:16;;;;;;;47.83;20.50;;;;;;;1.32;100.00;97216.66;5020573;28;20056;-67
2024/02/29 07:57:44;;;;;;;44.22;20.17;;;;;;;1.46;100.00;97216.75;5020606;28;20624;-54
2024/02/29 08:00:11;;;;;;;45.70;20.38;;;;;;;1.55;100.00;97212.91;5014932;28;20041;-54
2024/02/29 08:02:46;;;;;;;42.65;19.23;;;;;;;1.66;100.00;97215.00;5029150;28;20124;-54
2024/02/29 08:05:13;;;;;;;41.90;19.73;;;;;;;1.71;100.00;97209.06;5021270;28;20051;-53
2024/02/29 08:07:40;;;;;;;46.00;20.90;;;;;;;1.85;100.00;97209.13;5017504;28;20052;-51
2024/02/29 08:10:06;;;;;;;43.05;19.05;;;;;;;1.95;100.00;97210.38;5008096;28;20060;-55
2024/02/29 08:12:33;;;;;;;41.97;21.15;;;;;;;2.05;100.00;97218.03;5017641;28;20444;-50
2024/02/29 08:15:00;;;;;;;42.40;20.50;;;;;;;2.15;100.00;97212.31;5022047;28;20780;-48
2024/02/29 08:17:28;;;;;;;38.47;19.17;;;;;;;2.28;100.00;97208.81;5017959;28;20046;-49
2024/02/29 08:19:55;;;;;;;41.50;20.55;;;;;;;2.36;100.00;97212.34;5015359;28;20041;-48
2024/02/29 08:22:21;;;;;;;40.97;18.80;;;;;;;2.50;100.00;97208.66;5026260;28;20045;-48
2024/02/29 08:24:48;;;;;;;38.63;17.70;;;;;;;2.61;100.00;97201.88;5019421;28;20055;-50
2024/02/29 08:27:15;;;;;;;38.15;19.13;;;;;;;2.61;100.00;97207.22;5017065;28;20041;-50
2024/02/29 08:29:41;;;;;;;40.13;18.70;;;;;;;2.64;100.00;97203.31;5010165;28;20045;-50
2024/02/29 08:32:08;;;;;;;43.47;20.23;;;;;;;2.72;100.00;97203.94;5023736;28;20049;-51
2024/02/29 08:34:37;;;;;;;42.08;20.33;;;;;;;2.85;100.00;97204.97;5017078;28;20041;-64
2024/02/29 08:37:03;;;;;;;39.00;19.60;;;;;;;2.99;100.00;97195.91;5010738;28;20049;-62
2024/02/29 08:39:29;;;;;;;38.47;19.75;;;;;;;3.04;100.00;97191.78;5023441;28;20127;-64
2024/02/29 08:41:56;;;;;;;39.00;19.10;;;;;;;3.14;100.00;97194.03;5012339;28;20754;-64
2024/02/29 08:44:22;;;;;;;36.72;17.08;;;;;;;3.19;100.00;97189.72;5025393;28;20837;-65
2024/02/29 08:46:49;;;;;;;36.03;17.92;;;;;;;3.31;100.00;97183.72;5027438;28;20045;-64
2024/02/29 08:49:16;;;;;;;34.00;18.13;;;;;;;3.37;100.00;97185.56;5029314;28;20041;-64
2024/02/29 08:51:43;;;;;;;36.72;18.05;;;;;;;3.44;100.00;97185.53;5017571;28;20030;-63
2024/02/29 08:54:09;;;;;;;38.70;18.75;;;;;;;3.55;100.00;97184.06;5028047;28;20060;-64
2024/02/29 08:56:36;;;;;;;36.38;19.83;;;;;;;3.53;100.00;97167.41;5030865;28;20456;-63
2024/02/29 08:59:03;;;;;;;35.72;19.00;;;;;;;3.68;100.00;97169.81;5024289;28;20038;-63
2024/02/29 09:01:29;;;;;;;43.35;19.52;;;;;;;3.80;100.00;97170.78;5028851;28;20221;-63
2024/02/29 09:03:56;;;;;;;37.35;18.65;;;;;;;3.86;100.00;97169.91;5019687;28;20043;-63
2024/02/29 09:06:23;;;;;;;33.78;18.33;;;;;;;3.97;100.00;97164.91;5022897;28;20040;-63
2024/02/29 09:08:49;;;;;;;35.40;18.55;;;;;;;4.00;100.00;97164.50;5028080;28;20138;-63
2024/02/29 09:11:16;;;;;;;37.42;17.90;;;;;;;4.09;100.00;97160.50;5026005;28;20099;-62
2024/02/29 09:13:42;;;;;;;33.53;16.85;;;;;;;4.16;100.00;97161.31;5030636;28;20065;-62
2024/02/29 09:16:09;;;;;;;33.63;16.23;;;;;;;4.29;100.00;97149.69;5024943;28;20049;-61
2024/02/29 09:18:36;;;;;;;31.35;15.82;;;;;;;4.43;100.00;97147.72;5023937;28;20045;-62
2024/02/29 09:21:02;;;;;;;33.47;16.45;;;;;;;4.50;100.00;97142.28;5020116;28;20528;-63
2024/02/29 09:23:29;;;;;;;29.27;14.65;;;;;;;4.61;100.00;97139.97;5026540;28;20555;-63
2024/02/29 09:25:55;;;;;;;31.17;15.68;;;;;;;4.65;100.00;97136.59;5027176;28;20048;-62
2024/02/29 09:28:22;;;;;;;31.10;15.10;;;;;;;4.78;100.00;97130.31;5028411;28;20052;-64
2024/02/29 09:30:48;;;;;;;34.03;15.93;;;;;;;4.82;100.00;97139.56;5030431;28;20065;-66
2024/02/29 09:33:15;;;;;;;29.33;16.00;;;;;;;4.88;100.00;97139.72;5025254;28;20045;-66
2024/02/29 09:35:42;;;;;;;34.72;17.65;;;;;;;4.89;100.00;97135.97;5027226;28;20045;-62
2024/02/29 09:38:09;;;;;;;33.72;16.95;;;;;;;4.95;100.00;97125.19;5025779;28;20666;-66
2024/02/29 09:40:35;;;;;;;29.02;14.52;;;;;;;5.04;100.00;97131.09;5023308;28;20524;-66
2024/02/29 09:43:15;;;;;;;29.67;15.80;;;;;;;5.21;100.00;97125.94;5016509;28;20046;-66
2024/02/29 09:45:42;;;;;;;28.23;14.10;;;;;;;5.36;100.00;97122.09;5028452;28;20049;-61
2024/02/29 09:48:10;;;;;;;27.80;14.27;;;;;;;5.46;100.00;97114.31;5020198;28;20042;-64
2024/02/29 09:50:38;;;;;;;30.40;15.95;;;;;;;5.59;100.00;97107.97;5022500;28;20041;-61
2024/02/29 09:53:04;;;;;;;31.45;15.13;;;;;;;5.66;100.00;97112.41;5024081;28;20184;-64
2024/02/29 09:55:32;;;;;;;29.85;15.57;;;;;;;5.72;100.00;97098.91;5026601;28;20061;-65
2024/02/29 09:58:00;;;;;;;28.67;14.25;;;;;;;5.80;100.00;97097.78;5023852;28;20049;-62
2024/02/29 10:00:27;;;;;;;27.52;14.10;;;;;;;5.77;100.00;97089.34;5015931;28;20133;-63
2024/02/29 10:02:55;;;;;;;25.88;13.88;;;;;;;5.78;100.00;97080.25;5018448;28;20047;-62
2024/02/29 10:05:22;;;;;;;26.10;13.88;;;;;;;5.91;100.00;97073.84;5021203;28;20120;-63
2024/02/29 10:07:48;;;;;;;24.38;13.35;;;;;;;6.10;100.00;97069.25;5023973;28;20049;-63
2024/02/29 10:10:16;;;;;;;29.10;13.95;;;;;;;6.14;100.00;97072.28;5017162;28;20053;-62
2024/02/29 10:12:44;;;;;;;27.10;14.35;;;;;;;6.22;100.00;97066.59;5025593;28;20044;-64
2024/02/29 10:15:10;;;;;;;26.77;13.85;;;;;;;6.29;100.00;97072.69;5027200;28;20556;-67
2024/02/29 10:17:38;;;;;;;23.13;12.95;;;;;;;6.29;100.00;97064.63;5018811;28;20049;-64
2024/02/29 10:20:11;;;;;;;25.33;12.15;;;;;;;6.42;100.00;97055.53;5025848;28;20052;-64
2024/02/29 10:22:44;;;;;;;22.95;12.00;;;;;;;6.52;100.00;97054.91;5018663;28;20055;-64
2024/02/29 10:25:14;;;;;;;25.55;12.82;;;;;;;6.55;100.00;97046.41;5015286;28;20045;-64
2024/02/29 10:27:41;;;;;;;22.10;11.82;;;;;;;6.57;100.00;97049.69;5019570;28;20545;-64
2024/02/29 10:30:16;;;;;;;22.05;12.35;;;;;;;6.62;100.00;97047.09;5018095;28;20049;-66
2024/02/29 10:32:44;;;;;;;22.42;11.82;;;;;;;6.79;100.00;97042.88;5023032;28;20068;-67
2024/02/29 10:35:22;;;;;;;27.60;13.05;;;;;;;6.90;100.00;97044.75;5020653;28;20127;-66
2024/02/29 10:37:50;;;;;;;21.67;11.27;;;;;;;6.97;100.00;97039.22;5023569;28;20049;-67
2024/02/29 10:40:17;;;;;;;24.58;12.77;;;;;;;7.13;100.00;97041.19;5021284;28;20045;-69
2024/02/29 10:42:45;;;;;;;19.48;11.05;;;;;;;7.20;100.00;97038.38;5018460;28;20107;-65
2024/02/29 10:45:16;;;;;;;21.95;12.63;;;;;;;7.20;100.00;97032.97;5020524;28;20037;-66
2024/02/29 10:47:57;;;;;;;23.08;11.80;;;;;;;7.33;100.00;97031.06;5021950;28;20081;-65
2024/02/29 10:50:25;;;;;;;21.77;12.60;;;;;;;7.29;100.00;97022.63;5019838;28;20045;-65
2024/02/29 10:53:22;;;;;;;25.02;11.60;;;;;;;7.38;100.00;97015.00;5023281;28;20037;-66
2024/02/29 10:55:57;;;;;;;23.95;12.85;;;;;;;7.50;100.00;97020.34;5022672;28;20115;-67
2024/02/29 10:58:36;;;;;;;24.27;12.35;;;;;;;7.59;100.00;97016.19;5018099;28;20041;-65
2024/02/29 11:01:03;;;;;;;24.15;13.73;;;;;;;7.62;100.00;97013.03;5021975;28;20655;-65
2024/02/29 11:03:31;;;;;;;28.27;13.90;;;;;;;7.52;100.00;97002.88;5020659;28;20045;-65
2024/02/29 11:05:59;;;;;;;21.88;12.75;;;;;;;7.60;100.00;96996.28;5022313;28;20042;-64
2024/02/29 11:08:26;;;;;;;23.83;13.02;;;;;;;7.68;100.00;96995.06;5020276;28;20055;-64
2024/02/29 11:10:56;;;;;;;21.73;12.48;;;;;;;7.76;100.00;96989.28;5020323;28;20048;-65
2024/02/29 11:13:22;;;;;;;23.15;12.73;;;;;;;7.92;100.00;96984.97;5022871;28;20679;-66